sensor_id;sensor_type;location;lat;lon;timestamp;P1;durP1;ratioP1;P2;durP2;ratioP2
6825;SDS011;3451;52.476;13.316;2023-07-13T00:00:27;3.83;;;2.03;;
6825;SDS011;3451;52.476;13.316;2023-07-13T00:02:53;3.10;;;2.20;;
6825;SDS011;3451;52.476;13.316;2023-07-13T00:05:20;2.83;;;2.03;;
6825;SDS011;3451;52.476;13.316;2023-07-13T00:07:47;5.23;;;2.40;;
6825;SDS011;3451;52.476;13.316;2023-07-13T00:10:14;4.07;;;2.00;;
6825;SDS011;3451;52.476;13.316;2023-07-13T00:12:40;5.07;;;2.07;;
6825;SDS011;3451;52.476;13.316;2023-07-13T00:15:13;3.97;;;2.03;;
6825;SDS011;3451;52.476;13.316;2023-07-13T00:17:39;3.93;;;2.03;;
6825;SDS011;3451;52.476;13.316;2023-07-13T00:20:06;2.97;;;2.00;;
6825;SDS011;3451;52.476;13.316;2023-07-13T00:22:33;5.40;;;2.30;;
6825;SDS011;3451;52.476;13.316;2023-07-13T00:24:59;5.73;;;2.40;;
6825;SDS011;3451;52.476;13.316;2023-07-13T00:27:26;4.20;;;2.30;;
6825;SDS011;3451;52.476;13.316;2023-07-13T00:29:53;5.17;;;2.07;;
6825;SDS011;3451;52.476;13.316;2023-07-13T00:32:19;3.50;;;2.10;;
6825;SDS011;3451;52.476;13.316;2023-07-13T00:34:45;4.97;;;2.60;;
6825;SDS011;3451;52.476;13.316;2023-07-13T00:37:12;11.37;;;2.50;;
6825;SDS011;3451;52.476;13.316;2023-07-13T00:39:38;5.00;;;2.43;;
6825;SDS011;3451;52.476;13.316;2023-07-13T00:42:05;3.27;;;2.20;;
6825;SDS011;3451;52.476;13.316;2023-07-13T00:44:32;3.17;;;2.20;;
6825;SDS011;3451;52.476;13.316;2023-07-13T00:46:58;4.87;;;2.50;;
6825;SDS011;3451;52.476;13.316;2023-07-13T00:49:25;3.90;;;2.37;;
6825;SDS011;3451;52.476;13.316;2023-07-13T00:52:00;4.53;;;2.30;;
6825;SDS011;3451;52.476;13.316;2023-07-13T00:54:29;4.93;;;2.30;;
6825;SDS011;3451;52.476;13.316;2023-07-13T00:56:56;3.77;;;2.33;;
6825;SDS011;3451;52.476;13.316;2023-07-13T00:59:24;4.13;;;2.20;;
6825;SDS011;3451;52.476;13.316;2023-07-13T01:01:50;2.70;;;2.27;;
6825;SDS011;3451;52.476;13.316;2023-07-13T01:04:17;6.07;;;2.47;;
6825;SDS011;3451;52.476;13.316;2023-07-13T01:06:45;3.37;;;2.10;;
6825;SDS011;3451;52.476;13.316;2023-07-13T01:09:13;4.83;;;2.40;;
6825;SDS011;3451;52.476;13.316;2023-07-13T01:11:40;5.47;;;2.20;;
6825;SDS011;3451;52.476;13.316;2023-07-13T01:14:07;4.30;;;2.80;;
6825;SDS011;3451;52.476;13.316;2023-07-13T01:16:34;4.00;;;2.27;;
6825;SDS011;3451;52.476;13.316;2023-07-13T01:19:01;3.70;;;2.50;;
6825;SDS011;3451;52.476;13.316;2023-07-13T01:21:32;4.13;;;2.40;;
6825;SDS011;3451;52.476;13.316;2023-07-13T01:23:58;4.67;;;2.30;;
6825;SDS011;3451;52.476;13.316;2023-07-13T01:26:25;5.53;;;2.70;;
6825;SDS011;3451;52.476;13.316;2023-07-13T01:28:51;3.37;;;2.40;;
6825;SDS011;3451;52.476;13.316;2023-07-13T01:31:17;4.00;;;2.13;;
6825;SDS011;3451;52.476;13.316;2023-07-13T01:33:44;4.87;;;2.43;;
6825;SDS011;3451;52.476;13.316;2023-07-13T01:36:11;4.17;;;2.30;;
6825;SDS011;3451;52.476;13.316;2023-07-13T01:38:37;3.73;;;2.33;;
6825;SDS011;3451;52.476;13.316;2023-07-13T01:41:04;4.80;;;2.30;;
6825;SDS011;3451;52.476;13.316;2023-07-13T01:43:30;3.33;;;2.10;;
6825;SDS011;3451;52.476;13.316;2023-07-13T01:45:57;3.90;;;2.60;;
6825;SDS011;3451;52.476;13.316;2023-07-13T01:48:43;3.97;;;2.20;;
6825;SDS011;3451;52.476;13.316;2023-07-13T01:51:09;5.17;;;2.27;;
6825;SDS011;3451;52.476;13.316;2023-07-13T01:53:36;3.87;;;2.20;;
6825;SDS011;3451;52.476;13.316;2023-07-13T01:56:02;3.33;;;2.10;;
6825;SDS011;3451;52.476;13.316;2023-07-13T01:58:29;5.90;;;2.40;;
6825;SDS011;3451;52.476;13.316;2023-07-13T02:00:55;4.97;;;2.70;;
6825;SDS011;3451;52.476;13.316;2023-07-13T02:03:21;4.43;;;2.30;;
6825;SDS011;3451;52.476;13.316;2023-07-13T02:05:48;3.00;;;2.23;;
6825;SDS011;3451;52.476;13.316;2023-07-13T02:08:14;5.70;;;2.50;;
6825;SDS011;3451;52.476;13.316;2023-07-13T02:10:40;4.63;;;2.27;;
6825;SDS011;3451;52.476;13.316;2023-07-13T02:13:07;4.43;;;2.10;;
6825;SDS011;3451;52.476;13.316;2023-07-13T02:15:34;6.60;;;2.67;;
6825;SDS011;3451;52.476;13.316;2023-07-13T02:18:04;3.20;;;2.40;;
6825;SDS011;3451;52.476;13.316;2023-07-13T02:20:31;2.30;;;2.10;;
6825;SDS011;3451;52.476;13.316;2023-07-13T02:22:57;4.40;;;2.57;;
6825;SDS011;3451;52.476;13.316;2023-07-13T02:25:24;4.23;;;2.50;;
6825;SDS011;3451;52.476;13.316;2023-07-13T02:27:51;4.87;;;2.70;;
6825;SDS011;3451;52.476;13.316;2023-07-13T02:30:17;5.00;;;2.27;;
6825;SDS011;3451;52.476;13.316;2023-07-13T02:32:44;3.53;;;2.30;;
6825;SDS011;3451;52.476;13.316;2023-07-13T02:35:10;4.50;;;2.53;;
6825;SDS011;3451;52.476;13.316;2023-07-13T02:37:37;6.03;;;2.63;;
6825;SDS011;3451;52.476;13.316;2023-07-13T02:40:03;4.17;;;2.70;;
6825;SDS011;3451;52.476;13.316;2023-07-13T02:42:34;5.03;;;2.37;;
6825;SDS011;3451;52.476;13.316;2023-07-13T02:45:05;5.53;;;2.67;;
6825;SDS011;3451;52.476;13.316;2023-07-13T02:47:32;5.37;;;2.67;;
6825;SDS011;3451;52.476;13.316;2023-07-13T02:49:58;7.33;;;2.73;;
6825;SDS011;3451;52.476;13.316;2023-07-13T02:52:25;4.17;;;2.40;;
6825;SDS011;3451;52.476;13.316;2023-07-13T02:54:51;4.00;;;2.40;;
6825;SDS011;3451;52.476;13.316;2023-07-13T02:57:17;5.33;;;2.50;;
6825;SDS011;3451;52.476;13.316;2023-07-13T02:59:44;6.33;;;2.67;;
6825;SDS011;3451;52.476;13.316;2023-07-13T03:02:10;4.27;;;2.50;;
6825;SDS011;3451;52.476;13.316;2023-07-13T03:04:36;4.90;;;2.70;;
6825;SDS011;3451;52.476;13.316;2023-07-13T03:07:03;5.33;;;2.60;;
6825;SDS011;3451;52.476;13.316;2023-07-13T03:09:30;5.77;;;2.77;;
6825;SDS011;3451;52.476;13.316;2023-07-13T03:11:57;4.17;;;2.80;;
6825;SDS011;3451;52.476;13.316;2023-07-13T03:14:23;3.53;;;2.33;;
6825;SDS011;3451;52.476;13.316;2023-07-13T03:16:50;4.07;;;2.80;;
6825;SDS011;3451;52.476;13.316;2023-07-13T03:19:18;5.43;;;2.90;;
6825;SDS011;3451;52.476;13.316;2023-07-13T03:21:45;5.27;;;2.77;;
6825;SDS011;3451;52.476;13.316;2023-07-13T03:24:11;6.47;;;2.83;;
6825;SDS011;3451;52.476;13.316;2023-07-13T03:26:37;4.67;;;2.60;;
6825;SDS011;3451;52.476;13.316;2023-07-13T03:29:04;5.73;;;2.67;;
6825;SDS011;3451;52.476;13.316;2023-07-13T03:31:33;3.70;;;2.50;;
6825;SDS011;3451;52.476;13.316;2023-07-13T03:34:00;5.77;;;2.83;;
6825;SDS011;3451;52.476;13.316;2023-07-13T03:36:27;7.27;;;3.53;;
6825;SDS011;3451;52.476;13.316;2023-07-13T03:38:55;7.43;;;3.20;;
6825;SDS011;3451;52.476;13.316;2023-07-13T03:41:21;4.80;;;2.80;;
6825;SDS011;3451;52.476;13.316;2023-07-13T03:43:48;4.83;;;2.80;;
6825;SDS011;3451;52.476;13.316;2023-07-13T03:46:15;4.13;;;2.80;;
6825;SDS011;3451;52.476;13.316;2023-07-13T03:48:43;4.73;;;3.13;;
6825;SDS011;3451;52.476;13.316;2023-07-13T03:51:11;4.03;;;2.73;;
6825;SDS011;3451;52.476;13.316;2023-07-13T03:53:40;6.73;;;3.13;;
6825;SDS011;3451;52.476;13.316;2023-07-13T03:56:07;4.03;;;2.80;;
6825;SDS011;3451;52.476;13.316;2023-07-13T03:58:35;4.60;;;3.00;;
6825;SDS011;3451;52.476;13.316;2023-07-13T04:01:02;4.40;;;2.83;;
6825;SDS011;3451;52.476;13.316;2023-07-13T04:03:29;4.10;;;2.90;;
6825;SDS011;3451;52.476;13.316;2023-07-13T04:06:02;4.87;;;3.13;;
6825;SDS011;3451;52.476;13.316;2023-07-13T04:08:30;6.10;;;3.10;;
6825;SDS011;3451;52.476;13.316;2023-07-13T04:10:57;5.93;;;3.00;;
6825;SDS011;3451;52.476;13.316;2023-07-13T04:13:23;6.37;;;3.10;;
6825;SDS011;3451;52.476;13.316;2023-07-13T04:15:50;7.43;;;3.33;;
6825;SDS011;3451;52.476;13.316;2023-07-13T04:18:17;4.47;;;2.77;;
6825;SDS011;3451;52.476;13.316;2023-07-13T04:20:43;4.57;;;2.83;;
6825;SDS011;3451;52.476;13.316;2023-07-13T04:23:10;6.43;;;3.17;;
6825;SDS011;3451;52.476;13.316;2023-07-13T04:25:36;4.47;;;3.00;;
6825;SDS011;3451;52.476;13.316;2023-07-13T04:28:03;4.90;;;2.83;;
6825;SDS011;3451;52.476;13.316;2023-07-13T04:30:30;6.57;;;2.60;;
6825;SDS011;3451;52.476;13.316;2023-07-13T04:32:56;7.50;;;2.77;;
6825;SDS011;3451;52.476;13.316;2023-07-13T04:35:23;4.23;;;2.47;;
6825;SDS011;3451;52.476;13.316;2023-07-13T04:37:49;7.47;;;2.70;;
6825;SDS011;3451;52.476;13.316;2023-07-13T04:40:19;6.20;;;3.00;;
6825;SDS011;3451;52.476;13.316;2023-07-13T04:42:46;7.30;;;2.80;;
6825;SDS011;3451;52.476;13.316;2023-07-13T04:45:13;6.77;;;2.87;;
6825;SDS011;3451;52.476;13.316;2023-07-13T04:47:40;8.53;;;3.00;;
6825;SDS011;3451;52.476;13.316;2023-07-13T04:50:07;10.67;;;3.13;;
6825;SDS011;3451;52.476;13.316;2023-07-13T04:52:34;6.27;;;2.40;;
6825;SDS011;3451;52.476;13.316;2023-07-13T04:55:00;12.07;;;2.83;;
6825;SDS011;3451;52.476;13.316;2023-07-13T04:57:27;9.33;;;3.07;;
6825;SDS011;3451;52.476;13.316;2023-07-13T04:59:54;8.70;;;3.33;;
6825;SDS011;3451;52.476;13.316;2023-07-13T05:02:20;5.53;;;2.63;;
6825;SDS011;3451;52.476;13.316;2023-07-13T05:04:47;7.63;;;2.77;;
6825;SDS011;3451;52.476;13.316;2023-07-13T05:07:14;7.87;;;2.83;;
6825;SDS011;3451;52.476;13.316;2023-07-13T05:09:41;4.47;;;2.70;;
6825;SDS011;3451;52.476;13.316;2023-07-13T05:12:08;4.80;;;2.70;;
6825;SDS011;3451;52.476;13.316;2023-07-13T05:14:35;7.20;;;3.30;;
6825;SDS011;3451;52.476;13.316;2023-07-13T05:17:01;5.10;;;3.07;;
6825;SDS011;3451;52.476;13.316;2023-07-13T05:19:27;13.27;;;3.30;;
6825;SDS011;3451;52.476;13.316;2023-07-13T05:21:54;10.13;;;3.40;;
6825;SDS011;3451;52.476;13.316;2023-07-13T05:24:20;5.47;;;2.83;;
6825;SDS011;3451;52.476;13.316;2023-07-13T05:26:51;7.23;;;3.20;;
6825;SDS011;3451;52.476;13.316;2023-07-13T05:29:17;8.27;;;3.10;;
6825;SDS011;3451;52.476;13.316;2023-07-13T05:31:43;5.53;;;2.93;;
6825;SDS011;3451;52.476;13.316;2023-07-13T05:34:10;3.47;;;2.60;;
6825;SDS011;3451;52.476;13.316;2023-07-13T05:36:36;5.40;;;3.27;;
6825;SDS011;3451;52.476;13.316;2023-07-13T05:39:03;5.53;;;3.20;;
6825;SDS011;3451;52.476;13.316;2023-07-13T05:41:30;8.70;;;3.50;;
6825;SDS011;3451;52.476;13.316;2023-07-13T05:43:56;4.80;;;2.63;;
6825;SDS011;3451;52.476;13.316;2023-07-13T05:46:22;6.17;;;2.80;;
6825;SDS011;3451;52.476;13.316;2023-07-13T05:48:49;6.97;;;2.67;;
6825;SDS011;3451;52.476;13.316;2023-07-13T05:51:15;7.20;;;2.40;;
6825;SDS011;3451;52.476;13.316;2023-07-13T05:53:41;3.70;;;2.33;;
6825;SDS011;3451;52.476;13.316;2023-07-13T05:56:08;3.50;;;2.30;;
6825;SDS011;3451;52.476;13.316;2023-07-13T05:58:34;3.80;;;2.10;;
6825;SDS011;3451;52.476;13.316;2023-07-13T06:01:05;4.23;;;2.17;;
6825;SDS011;3451;52.476;13.316;2023-07-13T06:03:32;5.37;;;2.50;;
6825;SDS011;3451;52.476;13.316;2023-07-13T06:05:59;5.47;;;2.40;;
6825;SDS011;3451;52.476;13.316;2023-07-13T06:08:28;4.40;;;2.23;;
6825;SDS011;3451;52.476;13.316;2023-07-13T06:10:55;9.87;;;2.50;;
6825;SDS011;3451;52.476;13.316;2023-07-13T06:13:27;3.77;;;2.30;;
6825;SDS011;3451;52.476;13.316;2023-07-13T06:15:53;9.50;;;3.20;;
6825;SDS011;3451;52.476;13.316;2023-07-13T06:18:19;4.90;;;2.30;;
6825;SDS011;3451;52.476;13.316;2023-07-13T06:20:46;5.33;;;2.30;;
6825;SDS011;3451;52.476;13.316;2023-07-13T06:23:12;5.93;;;2.50;;
6825;SDS011;3451;52.476;13.316;2023-07-13T06:25:39;3.87;;;2.00;;
6825;SDS011;3451;52.476;13.316;2023-07-13T06:28:06;6.13;;;2.17;;
6825;SDS011;3451;52.476;13.316;2023-07-13T06:30:32;4.80;;;2.07;;
6825;SDS011;3451;52.476;13.316;2023-07-13T06:32:59;7.20;;;1.90;;
6825;SDS011;3451;52.476;13.316;2023-07-13T06:35:25;4.03;;;2.03;;
6825;SDS011;3451;52.476;13.316;2023-07-13T06:37:52;3.70;;;1.70;;
6825;SDS011;3451;52.476;13.316;2023-07-13T06:40:18;7.17;;;1.80;;
6825;SDS011;3451;52.476;13.316;2023-07-13T06:42:45;3.27;;;1.53;;
6825;SDS011;3451;52.476;13.316;2023-07-13T06:45:11;6.70;;;1.60;;
6825;SDS011;3451;52.476;13.316;2023-07-13T06:47:37;5.23;;;1.70;;
6825;SDS011;3451;52.476;13.316;2023-07-13T06:50:04;2.40;;;1.50;;
6825;SDS011;3451;52.476;13.316;2023-07-13T06:52:30;3.40;;;1.77;;
6825;SDS011;3451;52.476;13.316;2023-07-13T06:54:57;3.03;;;1.53;;
6825;SDS011;3451;52.476;13.316;2023-07-13T06:57:23;5.38;;;1.55;;
6825;SDS011;3451;52.476;13.316;2023-07-13T06:59:49;5.00;;;1.52;;
6825;SDS011;3451;52.476;13.316;2023-07-13T07:02:16;3.22;;;1.40;;
6825;SDS011;3451;52.476;13.316;2023-07-13T07:04:42;3.28;;;1.58;;
6825;SDS011;3451;52.476;13.316;2023-07-13T07:07:09;4.47;;;1.30;;
6825;SDS011;3451;52.476;13.316;2023-07-13T07:09:35;4.18;;;1.40;;
6825;SDS011;3451;52.476;13.316;2023-07-13T07:12:02;4.72;;;1.35;;
6825;SDS011;3451;52.476;13.316;2023-07-13T07:14:30;3.80;;;1.40;;
6825;SDS011;3451;52.476;13.316;2023-07-13T07:16:56;6.15;;;1.65;;
6825;SDS011;3451;52.476;13.316;2023-07-13T07:19:25;3.10;;;1.17;;
6825;SDS011;3451;52.476;13.316;2023-07-13T07:21:51;3.35;;;1.23;;
6825;SDS011;3451;52.476;13.316;2023-07-13T07:24:17;1.95;;;1.10;;
6825;SDS011;3451;52.476;13.316;2023-07-13T07:26:44;2.65;;;1.30;;
6825;SDS011;3451;52.476;13.316;2023-07-13T07:29:13;4.30;;;1.52;;
6825;SDS011;3451;52.476;13.316;2023-07-13T07:31:42;2.55;;;1.45;;
6825;SDS011;3451;52.476;13.316;2023-07-13T07:34:12;5.30;;;1.30;;
6825;SDS011;3451;52.476;13.316;2023-07-13T07:36:38;3.58;;;1.30;;
6825;SDS011;3451;52.476;13.316;2023-07-13T07:39:07;3.65;;;1.20;;
6825;SDS011;3451;52.476;13.316;2023-07-13T07:41:34;3.55;;;1.40;;
6825;SDS011;3451;52.476;13.316;2023-07-13T07:44:03;2.97;;;1.63;;
6825;SDS011;3451;52.476;13.316;2023-07-13T07:46:30;3.70;;;1.38;;
6825;SDS011;3451;52.476;13.316;2023-07-13T07:48:56;3.33;;;1.50;;
6825;SDS011;3451;52.476;13.316;2023-07-13T07:51:23;2.90;;;1.48;;
6825;SDS011;3451;52.476;13.316;2023-07-13T07:53:49;3.17;;;1.38;;
6825;SDS011;3451;52.476;13.316;2023-07-13T07:56:15;3.38;;;1.40;;
6825;SDS011;3451;52.476;13.316;2023-07-13T07:58:45;5.93;;;1.60;;
6825;SDS011;3451;52.476;13.316;2023-07-13T08:01:14;2.30;;;1.33;;
6825;SDS011;3451;52.476;13.316;2023-07-13T08:03:45;2.83;;;1.25;;
6825;SDS011;3451;52.476;13.316;2023-07-13T08:06:14;4.82;;;1.38;;
6825;SDS011;3451;52.476;13.316;2023-07-13T08:09:00;3.60;;;1.50;;
6825;SDS011;3451;52.476;13.316;2023-07-13T08:11:28;4.10;;;1.25;;
6825;SDS011;3451;52.476;13.316;2023-07-13T08:13:57;4.65;;;1.48;;
6825;SDS011;3451;52.476;13.316;2023-07-13T08:16:24;3.55;;;1.50;;
6825;SDS011;3451;52.476;13.316;2023-07-13T08:18:50;3.95;;;1.30;;
6825;SDS011;3451;52.476;13.316;2023-07-13T08:21:17;5.65;;;1.50;;
6825;SDS011;3451;52.476;13.316;2023-07-13T08:23:46;4.38;;;1.75;;
6825;SDS011;3451;52.476;13.316;2023-07-13T08:26:12;4.28;;;1.45;;
6825;SDS011;3451;52.476;13.316;2023-07-13T08:28:38;4.50;;;1.40;;
6825;SDS011;3451;52.476;13.316;2023-07-13T08:31:05;2.25;;;1.13;;
6825;SDS011;3451;52.476;13.316;2023-07-13T08:33:34;3.90;;;1.65;;
6825;SDS011;3451;52.476;13.316;2023-07-13T08:36:01;3.65;;;1.50;;
6825;SDS011;3451;52.476;13.316;2023-07-13T08:38:27;8.00;;;1.77;;
6825;SDS011;3451;52.476;13.316;2023-07-13T08:40:54;5.88;;;1.60;;
6825;SDS011;3451;52.476;13.316;2023-07-13T08:43:33;6.73;;;1.53;;
6825;SDS011;3451;52.476;13.316;2023-07-13T08:48:46;4.60;;;1.77;;
6825;SDS011;3451;52.476;13.316;2023-07-13T08:51:20;4.70;;;1.43;;
6825;SDS011;3451;52.476;13.316;2023-07-13T08:53:51;5.93;;;1.30;;
6825;SDS011;3451;52.476;13.316;2023-07-13T08:56:21;7.60;;;1.30;;
6825;SDS011;3451;52.476;13.316;2023-07-13T08:58:50;4.63;;;1.10;;
6825;SDS011;3451;52.476;13.316;2023-07-13T09:01:22;4.37;;;1.20;;
6825;SDS011;3451;52.476;13.316;2023-07-13T09:03:59;2.50;;;1.13;;
6825;SDS011;3451;52.476;13.316;2023-07-13T09:06:31;7.03;;;1.30;;
6825;SDS011;3451;52.476;13.316;2023-07-13T09:09:02;8.57;;;1.90;;
6825;SDS011;3451;52.476;13.316;2023-07-13T09:16:29;5.40;;;1.52;;
6825;SDS011;3451;52.476;13.316;2023-07-13T09:18:56;4.53;;;1.27;;
6825;SDS011;3451;52.476;13.316;2023-07-13T09:21:32;2.88;;;1.42;;
6825;SDS011;3451;52.476;13.316;2023-07-13T09:24:01;6.78;;;2.17;;
6825;SDS011;3451;52.476;13.316;2023-07-13T09:26:28;1.98;;;1.20;;
6825;SDS011;3451;52.476;13.316;2023-07-13T09:31:36;4.85;;;1.63;;
6825;SDS011;3451;52.476;13.316;2023-07-13T09:34:04;7.63;;;1.60;;
6825;SDS011;3451;52.476;13.316;2023-07-13T09:36:35;5.47;;;1.50;;
6825;SDS011;3451;52.476;13.316;2023-07-13T09:39:44;2.83;;;1.40;;
6825;SDS011;3451;52.476;13.316;2023-07-13T09:44:18;3.97;;;1.88;;
6825;SDS011;3451;52.476;13.316;2023-07-13T09:46:47;5.10;;;2.00;;
6825;SDS011;3451;52.476;13.316;2023-07-13T09:49:18;4.63;;;2.05;;
6825;SDS011;3451;52.476;13.316;2023-07-13T09:51:44;6.60;;;2.45;;
6825;SDS011;3451;52.476;13.316;2023-07-13T09:54:18;3.60;;;2.00;;
6825;SDS011;3451;52.476;13.316;2023-07-13T09:56:44;6.65;;;2.08;;
6825;SDS011;3451;52.476;13.316;2023-07-13T09:59:21;5.20;;;2.30;;
6825;SDS011;3451;52.476;13.316;2023-07-13T10:01:47;5.40;;;2.10;;
6825;SDS011;3451;52.476;13.316;2023-07-13T10:04:17;4.72;;;2.22;;
6825;SDS011;3451;52.476;13.316;2023-07-13T10:06:44;3.80;;;1.95;;
6825;SDS011;3451;52.476;13.316;2023-07-13T10:09:17;5.95;;;2.15;;
6825;SDS011;3451;52.476;13.316;2023-07-13T10:11:45;3.38;;;1.92;;
6825;SDS011;3451;52.476;13.316;2023-07-13T10:14:15;4.53;;;1.88;;
6825;SDS011;3451;52.476;13.316;2023-07-13T10:16:43;5.82;;;2.47;;
6825;SDS011;3451;52.476;13.316;2023-07-13T10:19:21;3.78;;;1.98;;
6825;SDS011;3451;52.476;13.316;2023-07-13T10:21:56;4.10;;;1.90;;
6825;SDS011;3451;52.476;13.316;2023-07-13T10:24:23;5.30;;;1.75;;
6825;SDS011;3451;52.476;13.316;2023-07-13T10:26:58;4.38;;;2.03;;
6825;SDS011;3451;52.476;13.316;2023-07-13T10:29:27;3.65;;;1.80;;
6825;SDS011;3451;52.476;13.316;2023-07-13T10:31:53;3.35;;;1.80;;
6825;SDS011;3451;52.476;13.316;2023-07-13T10:34:20;4.28;;;1.98;;
6825;SDS011;3451;52.476;13.316;2023-07-13T10:36:47;4.60;;;1.80;;
6825;SDS011;3451;52.476;13.316;2023-07-13T10:39:21;4.97;;;2.10;;
6825;SDS011;3451;52.476;13.316;2023-07-13T10:41:53;6.13;;;2.15;;
6825;SDS011;3451;52.476;13.316;2023-07-13T10:44:27;3.30;;;1.85;;
6825;SDS011;3451;52.476;13.316;2023-07-13T10:46:55;4.25;;;1.92;;
6825;SDS011;3451;52.476;13.316;2023-07-13T10:49:23;8.25;;;2.00;;
6825;SDS011;3451;52.476;13.316;2023-07-13T10:51:50;5.45;;;2.10;;
6825;SDS011;3451;52.476;13.316;2023-07-13T10:54:19;3.63;;;2.15;;
6825;SDS011;3451;52.476;13.316;2023-07-13T10:57:07;4.20;;;1.98;;
6825;SDS011;3451;52.476;13.316;2023-07-13T10:59:35;5.57;;;2.30;;
6825;SDS011;3451;52.476;13.316;2023-07-13T11:04:29;4.38;;;2.30;;
6825;SDS011;3451;52.476;13.316;2023-07-13T11:06:57;6.18;;;2.50;;
6825;SDS011;3451;52.476;13.316;2023-07-13T11:09:37;4.50;;;2.13;;
6825;SDS011;3451;52.476;13.316;2023-07-13T11:12:27;4.90;;;2.38;;
6825;SDS011;3451;52.476;13.316;2023-07-13T11:28:06;5.80;;;2.15;;
6825;SDS011;3451;52.476;13.316;2023-07-13T11:33:10;3.33;;;2.05;;
6825;SDS011;3451;52.476;13.316;2023-07-13T11:38:18;6.78;;;2.40;;
6825;SDS011;3451;52.476;13.316;2023-07-13T11:40:45;6.97;;;2.50;;
6825;SDS011;3451;52.476;13.316;2023-07-13T11:43:20;5.72;;;2.35;;
6825;SDS011;3451;52.476;13.316;2023-07-13T11:45:49;4.13;;;1.98;;
6825;SDS011;3451;52.476;13.316;2023-07-13T11:48:50;3.15;;;2.00;;
6825;SDS011;3451;52.476;13.316;2023-07-13T11:51:14;4.82;;;2.00;;
6825;SDS011;3451;52.476;13.316;2023-07-13T11:53:44;4.15;;;2.30;;
6825;SDS011;3451;52.476;13.316;2023-07-13T11:56:11;4.10;;;2.13;;
6825;SDS011;3451;52.476;13.316;2023-07-13T11:58:39;4.03;;;1.85;;
6825;SDS011;3451;52.476;13.316;2023-07-13T12:01:05;6.00;;;1.97;;
6825;SDS011;3451;52.476;13.316;2023-07-13T12:03:33;6.07;;;2.03;;
6825;SDS011;3451;52.476;13.316;2023-07-13T12:06:05;3.87;;;2.20;;
6825;SDS011;3451;52.476;13.316;2023-07-13T12:08:37;3.92;;;2.03;;
6825;SDS011;3451;52.476;13.316;2023-07-13T12:11:06;5.00;;;2.17;;
6825;SDS011;3451;52.476;13.316;2023-07-13T12:13:37;4.40;;;1.97;;
6825;SDS011;3451;52.476;13.316;2023-07-13T12:16:12;6.03;;;2.10;;
6825;SDS011;3451;52.476;13.316;2023-07-13T12:18:40;5.37;;;2.17;;
6825;SDS011;3451;52.476;13.316;2023-07-13T12:21:12;4.10;;;1.77;;
6825;SDS011;3451;52.476;13.316;2023-07-13T12:23:39;4.17;;;2.10;;
6825;SDS011;3451;52.476;13.316;2023-07-13T12:26:06;8.73;;;2.30;;
6825;SDS011;3451;52.476;13.316;2023-07-13T12:28:37;5.40;;;1.95;;
6825;SDS011;3451;52.476;13.316;2023-07-13T12:31:05;3.73;;;1.77;;
6825;SDS011;3451;52.476;13.316;2023-07-13T12:33:33;5.97;;;2.10;;
6825;SDS011;3451;52.476;13.316;2023-07-13T12:36:00;4.00;;;2.00;;
6825;SDS011;3451;52.476;13.316;2023-07-13T12:38:28;3.27;;;1.90;;
6825;SDS011;3451;52.476;13.316;2023-07-13T12:40:56;4.90;;;2.00;;
6825;SDS011;3451;52.476;13.316;2023-07-13T12:43:22;4.77;;;1.70;;
6825;SDS011;3451;52.476;13.316;2023-07-13T12:46:00;7.03;;;2.10;;
6825;SDS011;3451;52.476;13.316;2023-07-13T12:48:27;3.93;;;1.90;;
6825;SDS011;3451;52.476;13.316;2023-07-13T12:51:12;5.30;;;1.70;;
6825;SDS011;3451;52.476;13.316;2023-07-13T12:53:40;6.37;;;1.83;;
6825;SDS011;3451;52.476;13.316;2023-07-13T12:56:14;3.80;;;2.00;;
6825;SDS011;3451;52.476;13.316;2023-07-13T12:58:43;4.40;;;1.63;;
6825;SDS011;3451;52.476;13.316;2023-07-13T13:01:13;3.27;;;1.63;;
6825;SDS011;3451;52.476;13.316;2023-07-13T13:03:46;3.73;;;1.50;;
6825;SDS011;3451;52.476;13.316;2023-07-13T13:08:49;4.97;;;2.23;;
6825;SDS011;3451;52.476;13.316;2023-07-13T13:11:16;6.87;;;1.90;;
6825;SDS011;3451;52.476;13.316;2023-07-13T13:13:43;6.30;;;1.70;;
6825;SDS011;3451;52.476;13.316;2023-07-13T13:16:11;4.03;;;1.70;;
6825;SDS011;3451;52.476;13.316;2023-07-13T13:18:38;9.13;;;1.83;;
6825;SDS011;3451;52.476;13.316;2023-07-13T13:21:05;3.50;;;1.60;;
6825;SDS011;3451;52.476;13.316;2023-07-13T13:23:31;4.73;;;1.80;;
6825;SDS011;3451;52.476;13.316;2023-07-13T13:25:58;7.00;;;2.10;;
6825;SDS011;3451;52.476;13.316;2023-07-13T13:28:25;8.77;;;1.70;;
6825;SDS011;3451;52.476;13.316;2023-07-13T13:30:51;3.67;;;1.43;;
6825;SDS011;3451;52.476;13.316;2023-07-13T13:33:18;5.67;;;1.60;;
6825;SDS011;3451;52.476;13.316;2023-07-13T13:35:45;4.70;;;1.60;;
6825;SDS011;3451;52.476;13.316;2023-07-13T13:38:12;3.70;;;1.37;;
6825;SDS011;3451;52.476;13.316;2023-07-13T13:40:41;3.97;;;1.20;;
6825;SDS011;3451;52.476;13.316;2023-07-13T13:43:13;5.93;;;1.70;;
6825;SDS011;3451;52.476;13.316;2023-07-13T13:45:40;3.77;;;1.53;;
6825;SDS011;3451;52.476;13.316;2023-07-13T13:48:08;6.53;;;1.70;;
6825;SDS011;3451;52.476;13.316;2023-07-13T13:50:39;4.17;;;1.60;;
6825;SDS011;3451;52.476;13.316;2023-07-13T13:53:09;4.43;;;1.60;;
6825;SDS011;3451;52.476;13.316;2023-07-13T13:55:35;3.17;;;1.33;;
6825;SDS011;3451;52.476;13.316;2023-07-13T13:58:02;7.70;;;1.43;;
6825;SDS011;3451;52.476;13.316;2023-07-13T14:00:29;4.17;;;1.60;;
6825;SDS011;3451;52.476;13.316;2023-07-13T14:02:56;6.40;;;1.37;;
6825;SDS011;3451;52.476;13.316;2023-07-13T14:05:24;4.97;;;1.40;;
6825;SDS011;3451;52.476;13.316;2023-07-13T14:07:54;9.03;;;1.90;;
6825;SDS011;3451;52.476;13.316;2023-07-13T14:10:21;3.33;;;2.17;;
6825;SDS011;3451;52.476;13.316;2023-07-13T14:12:52;4.63;;;2.20;;
6825;SDS011;3451;52.476;13.316;2023-07-13T14:15:29;5.67;;;1.80;;
6825;SDS011;3451;52.476;13.316;2023-07-13T14:17:57;3.67;;;1.40;;
6825;SDS011;3451;52.476;13.316;2023-07-13T14:20:24;3.70;;;1.30;;
6825;SDS011;3451;52.476;13.316;2023-07-13T14:22:51;6.87;;;1.60;;
6825;SDS011;3451;52.476;13.316;2023-07-13T14:25:19;6.13;;;1.53;;
6825;SDS011;3451;52.476;13.316;2023-07-13T14:27:46;11.20;;;1.73;;
6825;SDS011;3451;52.476;13.316;2023-07-13T14:30:15;6.07;;;1.60;;
6825;SDS011;3451;52.476;13.316;2023-07-13T14:32:42;4.30;;;1.60;;
6825;SDS011;3451;52.476;13.316;2023-07-13T14:35:11;6.50;;;1.60;;
6825;SDS011;3451;52.476;13.316;2023-07-13T14:37:39;6.43;;;1.67;;
6825;SDS011;3451;52.476;13.316;2023-07-13T14:40:12;8.07;;;1.90;;
6825;SDS011;3451;52.476;13.316;2023-07-13T14:42:39;5.27;;;1.70;;
6825;SDS011;3451;52.476;13.316;2023-07-13T14:45:05;4.50;;;1.90;;
6825;SDS011;3451;52.476;13.316;2023-07-13T14:47:37;8.57;;;1.90;;
6825;SDS011;3451;52.476;13.316;2023-07-13T14:50:04;6.47;;;1.40;;
6825;SDS011;3451;52.476;13.316;2023-07-13T14:52:31;3.50;;;1.30;;
6825;SDS011;3451;52.476;13.316;2023-07-13T14:54:57;7.30;;;1.40;;
6825;SDS011;3451;52.476;13.316;2023-07-13T14:57:24;4.33;;;1.37;;
6825;SDS011;3451;52.476;13.316;2023-07-13T14:59:50;2.27;;;1.47;;
6825;SDS011;3451;52.476;13.316;2023-07-13T15:02:19;5.03;;;1.40;;
6825;SDS011;3451;52.476;13.316;2023-07-13T15:04:50;5.70;;;1.10;;
6825;SDS011;3451;52.476;13.316;2023-07-13T15:07:16;3.27;;;1.30;;
6825;SDS011;3451;52.476;13.316;2023-07-13T15:09:45;2.13;;;1.10;;
6825;SDS011;3451;52.476;13.316;2023-07-13T15:12:11;3.47;;;1.20;;
6825;SDS011;3451;52.476;13.316;2023-07-13T15:14:37;4.63;;;1.00;;
6825;SDS011;3451;52.476;13.316;2023-07-13T15:17:04;2.57;;;1.10;;
6825;SDS011;3451;52.476;13.316;2023-07-13T15:19:31;2.40;;;1.10;;
6825;SDS011;3451;52.476;13.316;2023-07-13T15:21:57;2.57;;;1.00;;
6825;SDS011;3451;52.476;13.316;2023-07-13T15:24:24;3.63;;;1.03;;
6825;SDS011;3451;52.476;13.316;2023-07-13T15:26:50;2.80;;;0.90;;
6825;SDS011;3451;52.476;13.316;2023-07-13T15:29:18;2.77;;;1.13;;
6825;SDS011;3451;52.476;13.316;2023-07-13T15:31:44;5.63;;;1.33;;
6825;SDS011;3451;52.476;13.316;2023-07-13T15:34:13;5.40;;;1.40;;
6825;SDS011;3451;52.476;13.316;2023-07-13T15:36:39;3.03;;;1.27;;
6825;SDS011;3451;52.476;13.316;2023-07-13T15:39:06;2.43;;;1.00;;
6825;SDS011;3451;52.476;13.316;2023-07-13T15:41:33;3.80;;;1.10;;